Time;durP1;ratioP1;P1;durP2;ratioP2;P2;SDS_P1;SDS_P2;PMS_P1;PMS_P2;Temp;Humidity;BMP_temperature;BMP_pressure;BME280_temperature;BME280_humidity;BME280_pressure;Samples;Min_cycle;Max_cycle;Signal;HPM_P1;HPM_P2
2022/03/19 00:00:26;;;;;;;13.57;7.37;;;;;;;5.02;68.16;101352.09;5121220;28;41702;-77
2022/03/19 00:02:54;;;;;;;14.37;7.40;;;;;;;4.89;67.96;101333.72;5119767;28;43924;-76
2022/03/19 00:05:22;;;;;;;12.73;6.83;;;;;;;4.93;68.14;101343.34;5096779;28;41237;-80
2022/03/19 00:07:50;;;;;;;13.80;6.77;;;;;;;4.99;68.08;101361.72;5114772;27;40174;-76
2022/03/19 00:10:20;;;;;;;10.37;6.13;;;;;;;4.97;68.03;101355.59;5135896;27;41502;-77
2022/03/19 00:12:49;;;;;;;11.07;6.60;;;;;;;4.96;67.75;101353.84;5116906;27;43255;-79
2022/03/19 00:15:19;;;;;;;12.10;6.90;;;;;;;4.94;67.53;101355.59;5126249;27;20226;-77
2022/03/19 00:17:48;;;;;;;13.37;5.87;;;;;;;4.90;67.82;101361.72;5114654;28;41000;-77
2022/03/19 00:20:16;;;;;;;12.90;6.03;;;;;;;4.87;67.54;101364.34;5096438;28;40846;-80
2022/03/19 00:22:45;;;;;;;10.57;6.20;;;;;;;4.83;67.80;101365.19;5095673;28;41785;-76
2022/03/19 00:25:13;;;;;;;15.40;6.63;;;;;;;4.57;67.61;101320.56;5112645;28;44050;-78
2022/03/19 00:27:41;;;;;;;11.83;7.43;;;;;;;4.77;68.24;101355.59;5129764;27;42426;-77
2022/03/19 00:30:10;;;;;;;10.47;6.10;;;;;;;4.74;68.86;101355.56;5113473;28;42476;-76
2022/03/19 00:32:37;;;;;;;9.70;5.73;;;;;;;4.74;68.52;101355.56;5113244;28;42711;-78
2022/03/19 00:35:09;;;;;;;10.37;5.60;;;;;;;4.75;68.80;101352.06;5095751;28;41371;-76
2022/03/19 00:37:43;;;;;;;13.80;6.37;;;;;;;4.75;69.10;101353.81;5114907;28;40134;-79
2022/03/19 00:40:12;;;;;;;11.63;6.23;;;;;;;4.74;68.88;101352.06;5111675;28;43007;-80
2022/03/19 00:42:39;;;;;;;10.23;5.63;;;;;;;4.75;69.07;101353.81;5112948;28;43537;-79
2022/03/19 00:45:08;;;;;;;9.40;5.80;;;;;;;4.67;68.98;101330.22;5113347;28;42368;-76
2022/03/19 00:47:36;;;;;;;9.53;5.93;;;;;;;4.74;68.92;101345.06;5096172;28;40222;-78
2022/03/19 00:50:08;;;;;;;10.83;5.57;;;;;;;4.73;68.97;101352.94;5114018;28;41867;-80
2022/03/19 00:52:36;;;;;;;11.23;4.83;;;;;;;4.58;68.70;101320.53;5112684;28;43386;-76
2022/03/19 00:55:04;;;;;;;10.07;5.47;;;;;;;4.60;69.09;101325.81;5113086;28;42359;-77
2022/03/19 00:57:38;;;;;;;12.73;5.47;;;;;;;4.68;68.93;101343.34;5112030;28;39926;-76
2022/03/19 01:00:11;;;;;;;8.97;5.17;;;;;;;4.70;68.68;101338.94;5113305;28;40745;-79
2022/03/19 01:02:40;;;;;;;12.10;6.07;;;;;;;4.79;68.66;101345.09;5113644;28;43517;-79
2022/03/19 01:05:11;;;;;;;10.07;4.87;;;;;;;4.79;68.38;101345.09;5095767;28;41287;-79
2022/03/19 01:07:43;;;;;;;9.90;4.77;;;;;;;4.79;68.46;101347.72;5112686;28;39817;-76
2022/03/19 01:10:12;;;;;;;9.10;4.93;;;;;;;4.76;68.67;101345.06;5112803;28;40670;-79
2022/03/19 01:12:40;;;;;;;10.30;5.27;;;;;;;4.68;68.53;101335.47;5112636;28;44039;-77
2022/03/19 01:15:09;;;;;;;8.83;4.40;;;;;;;4.78;68.42;101345.97;5112595;28;42265;-77
2022/03/19 01:17:37;;;;;;;10.00;5.27;;;;;;;4.53;68.66;101314.44;5113932;28;40908;-78
2022/03/19 01:20:06;;;;;;;7.27;4.87;;;;;;;4.76;68.41;101347.69;5095219;28;40713;-76
2022/03/19 01:22:35;;;;;;;8.47;4.60;;;;;;;4.76;68.33;101350.31;5112367;28;42711;-79
2022/03/19 01:25:05;;;;;;;9.53;4.90;;;;;;;4.58;68.26;101306.56;5112709;28;43262;-77
2022/03/19 01:27:32;;;;;;;6.50;3.83;;;;;;;4.72;68.37;101343.31;5112508;28;40896;-80
2022/03/19 01:30:00;;;;;;;8.87;4.73;;;;;;;4.55;68.10;101314.44;5112501;28;41653;-77
2022/03/19 01:32:28;;;;;;;8.30;4.63;;;;;;;4.72;68.16;101336.31;5095366;28;42817;-76
2022/03/19 01:34:56;;;;;;;8.50;4.80;;;;;;;4.55;68.33;101317.06;5095339;28;44104;-78
2022/03/19 01:37:24;;;;;;;10.20;4.27;;;;;;;4.62;68.07;101327.56;5112393;28;41053;-76
2022/03/19 01:39:55;;;;;;;10.87;4.33;;;;;;;4.66;68.15;101331.94;5095190;28;41178;-77
2022/03/19 01:42:24;;;;;;;8.13;4.20;;;;;;;4.64;68.30;101327.56;5094979;28;41764;-79
2022/03/19 01:44:52;;;;;;;11.87;4.63;;;;;;;4.48;68.02;101295.19;5112459;28;43095;-77
2022/03/19 01:47:20;;;;;;;11.27;4.57;;;;;;;4.51;68.19;101305.69;5112464;28;39997;-77
2022/03/19 01:49:48;;;;;;;7.27;3.70;;;;;;;4.60;68.32;101324.06;5095237;28;40656;-76
2022/03/19 01:52:16;;;;;;;9.47;4.20;;;;;;;4.43;68.07;101296.06;5094599;28;41664;-77
2022/03/19 01:54:45;;;;;;;9.30;4.30;;;;;;;4.55;68.81;101320.56;5112382;28;41272;-77
2022/03/19 01:57:18;;;;;;;16.13;4.37;;;;;;;4.55;68.81;101312.69;5094816;28;39021;-77
2022/03/19 01:59:48;;;;;;;6.77;4.30;;;;;;;4.55;68.79;101307.44;5110404;28;42652;-80
2022/03/19 02:02:15;;;;;;;10.27;4.90;;;;;;;4.55;68.68;101304.81;5094716;28;42919;-76
2022/03/19 02:04:44;;;;;;;9.33;4.70;;;;;;;4.49;68.69;101291.69;5094883;28;41372;-76
2022/03/19 02:07:13;;;;;;;9.23;4.40;;;;;;;4.54;68.29;101303.06;5112103;28;41001;-79
2022/03/19 02:09:42;;;;;;;5.37;4.30;;;;;;;4.49;68.34;101291.69;5111725;28;43578;-77
2022/03/19 02:12:10;;;;;;;11.47;4.87;;;;;;;4.50;68.42;101296.06;5094251;28;41228;-79
2022/03/19 02:14:41;;;;;;;12.47;4.60;;;;;;;4.48;67.94;101294.31;5111877;28;43230;-76
2022/03/19 02:17:10;;;;;;;8.53;4.47;;;;;;;4.45;68.19;101294.31;5109062;27;40322;-78
2022/03/19 02:19:47;;;;;;;7.30;4.93;;;;;;;4.41;68.24;101292.56;5090969;28;41695;-79
2022/03/19 02:22:16;;;;;;;11.17;5.20;;;;;;;4.37;68.29;101296.91;5090535;28;41594;-77
2022/03/19 02:27:31;;;;;;;7.87;4.23;;;;;;;4.30;68.22;101287.28;5091771;28;40099;-79
2022/03/19 02:29:58;;;;;;;10.53;4.20;;;;;;;4.21;68.84;101268.88;5091187;28;42646;-78
2022/03/19 02:32:26;;;;;;;7.83;3.73;;;;;;;4.28;68.53;101286.41;5090433;28;42547;-80
2022/03/19 02:34:55;;;;;;;10.43;4.30;;;;;;;4.25;68.23;101282.03;5090995;28;41360;-79
2022/03/19 02:37:22;;;;;;;5.57;3.87;;;;;;;4.21;68.12;101285.50;5090937;28;41229;-77
2022/03/19 02:39:51;;;;;;;6.27;3.73;;;;;;;4.16;68.07;101281.13;5091256;28;42711;-78
2022/03/19 02:42:21;;;;;;;6.30;3.53;;;;;;;4.17;68.16;101282.88;5091105;28;42918;-77
2022/03/19 02:44:49;;;;;;;7.30;3.50;;;;;;;4.14;68.24;101282.88;5111255;28;43628;-78
2022/03/19 02:47:17;;;;;;;6.40;3.50;;;;;;;4.01;68.37;101271.47;5121996;27;38887;-79
2022/03/19 02:49:44;;;;;;;5.90;3.87;;;;;;;4.07;68.40;101281.13;5114035;27;42656;-79
2022/03/19 02:52:12;;;;;;;6.50;3.97;;;;;;;4.04;68.98;101279.38;5093254;28;41826;-78
2022/03/19 02:54:39;;;;;;;8.03;3.73;;;;;;;3.93;68.95;101253.13;5100352;27;42333;-77
2022/03/19 02:57:08;;;;;;;11.90;4.50;;;;;;;4.00;69.31;101266.22;5114282;27;39794;-79
2022/03/19 02:59:35;;;;;;;4.77;3.57;;;;;;;4.01;68.79;101268.84;5131720;27;42206;-78
2022/03/19 03:02:05;;;;;;;8.40;4.30;;;;;;;4.01;69.01;101270.59;5131539;27;41751;-77
2022/03/19 03:04:33;;;;;;;6.93;3.80;;;;;;;3.96;69.32;101263.59;5114176;27;41074;-80
2022/03/19 03:07:03;;;;;;;11.37;4.87;;;;;;;3.82;69.14;101239.09;5114429;27;40341;-76
2022/03/19 03:09:32;;;;;;;9.13;4.63;;;;;;;3.93;69.42;101258.34;5114346;27;40691;-80
2022/03/19 03:12:01;;;;;;;10.20;4.57;;;;;;;3.90;69.09;101263.59;5114149;27;42287;-77
2022/03/19 03:14:31;;;;;;;9.60;3.83;;;;;;;3.88;69.27;101260.09;5132874;27;43295;-80
2022/03/19 03:17:00;;;;;;;14.50;4.07;;;;;;;3.78;69.47;101242.59;5131372;27;40721;-78
2022/03/19 03:19:29;;;;;;;10.70;4.27;;;;;;;3.84;69.55;101247.81;5114026;27;40708;-77
2022/03/19 03:21:56;;;;;;;11.60;5.83;;;;;;;3.81;70.60;101242.59;5130724;27;42575;-77
2022/03/19 03:24:24;;;;;;;8.50;4.47;;;;;;;3.79;70.02;101241.72;5131283;27;44174;-76
2022/03/19 03:26:51;;;;;;;8.23;4.37;;;;;;;3.79;70.19;101244.34;5114265;27;39726;-80
2022/03/19 03:29:19;;;;;;;8.33;4.27;;;;;;;3.78;70.13;101253.06;5131567;27;40722;-78
2022/03/19 03:31:48;;;;;;;8.30;4.10;;;;;;;3.72;70.19;101237.31;5131176;27;43026;-78
2022/03/19 03:34:16;;;;;;;9.03;4.67;;;;;;;3.74;70.36;101246.03;5131285;27;43621;-77
2022/03/19 03:36:43;;;;;;;8.93;4.23;;;;;;;3.71;70.31;101243.41;5114312;27;38869;-77
2022/03/19 03:39:11;;;;;;;7.17;4.60;;;;;;;3.70;70.23;101239.06;5114104;27;40393;-79
2022/03/19 03:41:39;;;;;;;7.77;3.77;;;;;;;3.67;70.08;101244.28;5131240;27;43899;-77
2022/03/19 03:44:07;;;;;;;8.53;5.03;;;;;;;3.65;70.40;101240.78;5131198;27;42277;-78
2022/03/19 03:46:34;;;;;;;5.90;3.67;;;;;;;3.62;70.66;101240.75;5131170;27;40787;-77
2022/03/19 03:49:03;;;;;;;9.40;3.93;;;;;;;3.35;71.17;101194.38;5114118;27;41612;-75
2022/03/19 03:51:31;;;;;;;9.97;4.37;;;;;;;3.64;71.52;101233.78;5130313;27;41892;-78
2022/03/19 03:53:59;;;;;;;7.97;3.83;;;;;;;3.64;71.81;101240.78;5131188;27;42766;-78
2022/03/19 03:56:26;;;;;;;7.27;3.60;;;;;;;3.47;71.70;101202.28;5131038;27;38890;-75
2022/03/19 03:58:55;;;;;;;12.73;5.07;;;;;;;3.66;71.86;101239.91;5113864;27;41588;-79
2022/03/19 04:01:23;;;;;;;9.47;4.53;;;;;;;3.67;71.71;101243.41;5130698;27;43198;-79
2022/03/19 04:03:50;;;;;;;6.83;4.03;;;;;;;3.67;71.65;101238.19;5132195;27;42322;-76
2022/03/19 04:06:19;;;;;;;9.67;4.13;;;;;;;3.68;71.90;101234.69;5130748;27;39107;-78
2022/03/19 04:08:47;;;;;;;6.70;3.60;;;;;;;3.68;71.74;101239.94;5130814;27;40786;-78
2022/03/19 04:11:14;;;;;;;10.87;4.10;;;;;;;3.63;71.31;101225.91;5134333;27;43326;-78
2022/03/19 04:13:42;;;;;;;8.33;4.73;;;;;;;3.51;71.47;101211.91;5117425;27;42517;-76
2022/03/19 04:16:09;;;;;;;9.20;4.40;;;;;;;3.66;71.53;101236.41;5134191;27;38824;-76
2022/03/19 04:18:37;;;;;;;9.37;4.07;;;;;;;3.65;71.81;101235.53;5116937;27;44335;-79
2022/03/19 04:21:05;;;;;;;9.17;4.00;;;;;;;3.66;71.85;101228.56;5116405;27;41904;-79
2022/03/19 04:23:34;;;;;;;11.70;4.53;;;;;;;3.66;71.86;101236.41;5116598;27;41594;-77
2022/03/19 04:26:02;;;;;;;8.23;4.27;;;;;;;3.69;71.80;101236.44;5117018;27;39148;-80
2022/03/19 04:28:29;;;;;;;9.33;4.23;;;;;;;3.70;71.76;101235.56;5135627;27;41828;-79
2022/03/19 04:30:58;;;;;;;8.63;3.70;;;;;;;3.65;71.73;101227.69;5133743;27;44831;-79
2022/03/19 04:33:25;;;;;;;8.80;3.87;;;;;;;3.55;71.79;101212.81;5116593;27;42560;-76
2022/03/19 04:38:40;;;;;;;9.77;3.90;;;;;;;3.66;71.34;101232.06;5132421;27;42012;-77
2022/03/19 04:41:08;;;;;;;10.70;4.70;;;;;;;3.57;71.51;101217.19;5116406;27;44364;-78
2022/03/19 04:43:35;;;;;;;5.77;3.50;;;;;;;3.64;71.98;101232.91;5116586;27;42176;-79
2022/03/19 04:46:03;;;;;;;7.70;4.00;;;;;;;3.58;71.63;101215.44;5116580;27;39075;-79
2022/03/19 04:48:30;;;;;;;8.07;4.50;;;;;;;3.53;71.36;101214.53;5116461;27;40808;-78
2022/03/19 04:50:58;;;;;;;9.07;4.07;;;;;;;3.57;71.11;101230.28;5133293;27;43950;-77
2022/03/19 04:53:26;;;;;;;7.93;4.20;;;;;;;3.57;70.93;101232.03;5130627;27;42445;-76
2022/03/19 04:55:55;;;;;;;9.40;3.97;;;;;;;3.52;71.20;101231.13;5134809;27;40658;-77
2022/03/19 04:58:22;;;;;;;7.17;4.57;;;;;;;3.48;72.16;101227.59;5146665;27;41922;-77
2022/03/19 05:00:50;;;;;;;7.63;4.00;;;;;;;3.43;72.10;101220.63;5113078;28;43046;-77
2022/03/19 05:03:18;;;;;;;8.93;4.47;;;;;;;3.46;72.09;101228.50;5112713;28;42533;-76
2022/03/19 05:05:46;;;;;;;6.87;4.30;;;;;;;3.46;72.35;101234.56;5130046;27;40113;-78
2022/03/19 05:08:13;;;;;;;9.20;4.50;;;;;;;3.47;72.84;101231.09;5128413;27;41718;-79
2022/03/19 05:13:27;;;;;;;9.77;4.50;;;;;;;3.46;72.79;101233.72;5131662;27;43218;-77
2022/03/19 05:15:54;;;;;;;10.40;4.80;;;;;;;3.44;73.08;101232.84;5109055;28;41460;-77
2022/03/19 05:18:23;;;;;;;7.23;4.23;;;;;;;3.39;72.98;101221.47;5113873;28;41971;-76
2022/03/19 05:20:50;;;;;;;10.23;3.87;;;;;;;3.43;72.85;101223.22;5112391;27;42742;-76
2022/03/19 05:23:18;;;;;;;9.70;4.57;;;;;;;3.47;72.97;101230.22;5094861;28;43593;-78
2022/03/19 05:25:46;;;;;;;7.03;3.80;;;;;;;3.47;72.92;101235.44;5094953;28;40941;-77
2022/03/19 05:28:13;;;;;;;10.20;4.60;;;;;;;3.46;73.12;101229.34;5112751;28;41720;-79
2022/03/19 05:30:42;;;;;;;9.63;4.20;;;;;;;3.31;73.31;101202.22;5112771;28;42877;-76
2022/03/19 05:33:10;;;;;;;12.93;5.10;;;;;;;3.56;72.99;101235.53;5113521;28;42526;-79
2022/03/19 05:35:38;;;;;;;8.60;4.70;;;;;;;3.60;72.85;101243.38;5112684;28;40060;-76
2022/03/19 05:38:06;;;;;;;10.30;4.87;;;;;;;3.59;72.55;101236.38;5112435;28;41784;-77
2022/03/19 05:40:33;;;;;;;11.77;5.33;;;;;;;3.66;72.57;101242.53;5095331;28;43292;-77
2022/03/19 05:43:01;;;;;;;16.67;5.33;;;;;;;3.51;72.68;101216.28;5112278;28;42315;-78
2022/03/19 05:45:29;;;;;;;8.17;4.40;;;;;;;3.74;72.38;101250.41;5111682;28;40286;-76
2022/03/19 05:47:58;;;;;;;8.43;4.57;;;;;;;3.73;72.28;101232.94;5111795;28;41725;-78
2022/03/19 05:50:26;;;;;;;11.50;5.00;;;;;;;3.80;71.96;101238.22;5111773;28;42679;-79
2022/03/19 05:52:54;;;;;;;9.27;5.57;;;;;;;3.82;72.20;101249.59;5111539;28;42182;-78
2022/03/19 05:55:21;;;;;;;9.03;5.27;;;;;;;3.85;72.13;101246.94;5112124;28;41463;-77
2022/03/19 05:57:49;;;;;;;10.20;4.70;;;;;;;3.94;71.82;101254.00;5110531;28;40539;-79
2022/03/19 06:00:17;;;;;;;12.63;5.80;;;;;;;3.98;71.68;101258.34;5112055;28;41578;-77
2022/03/19 06:02:44;;;;;;;12.83;5.87;;;;;;;4.04;71.56;101253.13;5112511;28;42574;-79
2022/03/19 06:05:13;;;;;;;10.83;5.40;;;;;;;4.07;71.50;101249.66;5129451;27;40027;-79
2022/03/19 06:07:41;;;;;;;9.80;6.27;;;;;;;4.13;71.32;101249.66;5112183;28;41793;-79
2022/03/19 06:10:10;;;;;;;7.37;4.87;;;;;;;4.19;71.32;101249.69;5128858;27;42881;-79
2022/03/19 06:12:37;;;;;;;11.70;5.60;;;;;;;4.24;71.22;101251.41;5110977;28;42786;-77
2022/03/19 06:15:05;;;;;;;12.97;5.80;;;;;;;4.31;71.15;101254.94;5094660;28;40351;-77
2022/03/19 06:17:33;;;;;;;7.23;5.40;;;;;;;4.37;71.15;101247.06;5094579;28;43968;-79
2022/03/19 06:20:01;;;;;;;10.30;5.73;;;;;;;4.44;71.35;101245.34;5111933;27;43636;-77
2022/03/19 06:22:30;;;;;;;8.97;5.47;;;;;;;4.53;70.81;101246.22;5121163;27;44343;-77
2022/03/19 06:24:57;;;;;;;10.93;6.20;;;;;;;4.68;70.88;101246.22;5094272;28;42132;-76
2022/03/19 06:27:25;;;;;;;9.80;5.13;;;;;;;4.76;70.39;101234.81;5111238;28;42417;-77
2022/03/19 06:29:56;;;;;;;14.73;5.83;;;;;;;4.78;70.33;101225.19;5111632;28;42937;-76
2022/03/19 06:32:23;;;;;;;11.33;5.80;;;;;;;5.03;70.02;101247.91;5093993;28;42454;-76
2022/03/19 06:34:54;;;;;;;11.37;5.63;;;;;;;5.05;69.53;101219.91;5094435;28;38511;-76
2022/03/19 06:37:20;;;;;;;10.67;6.17;;;;;;;5.39;68.79;101242.56;5112296;28;42674;-81
2022/03/19 06:39:53;;;;;;;11.13;5.30;;;;;;;5.49;68.55;101242.53;5112476;28;43729;-80
2022/03/19 06:42:20;;;;;;;9.33;5.63;;;;;;;5.47;68.44;101228.53;5111626;28;41986;-79
2022/03/19 06:44:49;;;;;;;11.00;5.80;;;;;;;5.74;68.07;101250.31;5094392;28;39908;-79
2022/03/19 06:47:17;;;;;;;9.73;5.63;;;;;;;6.00;67.49;101255.47;5111067;28;40863;-75
2022/03/19 06:49:44;;;;;;;9.27;5.60;;;;;;;6.08;67.06;101251.03;5128348;27;42695;-76
2022/03/19 06:52:12;;;;;;;8.97;5.63;;;;;;;6.16;67.19;101242.25;5111802;28;43207;-79
2022/03/19 06:54:39;;;;;;;9.33;5.90;;;;;;;6.36;67.38;101235.06;5111176;28;39809;-79
2022/03/19 06:57:10;;;;;;;12.13;6.20;;;;;;;6.69;66.90;101240.06;5112051;28;41953;-77
2022/03/19 06:59:37;;;;;;;11.00;6.20;;;;;;;7.01;65.91;101231.00;5127850;27;44079;-76
2022/03/19 07:02:05;;;;;;;10.43;5.43;;;;;;;7.56;64.59;101237.38;5110784;28;41231;-77
2022/03/19 07:04:33;;;;;;;11.60;5.80;;;;;;;8.48;62.72;101238.78;5128068;27;41015;-76
2022/03/19 07:07:01;;;;;;;11.27;6.33;;;;;;;9.53;59.05;101274.78;5110591;28;40801;-78
2022/03/19 07:09:28;;;;;;;10.57;6.17;;;;;;;10.53;55.87;101286.78;5093943;28;42342;-78
2022/03/19 07:11:56;;;;;;;9.00;5.63;;;;;;;11.73;53.09;101291.59;5110666;28;42395;-78
2022/03/19 07:14:25;;;;;;;9.00;6.17;;;;;;;12.91;49.79;101308.34;5085091;28;39943;-78
2022/03/19 07:16:54;;;;;;;8.03;6.30;;;;;;;14.52;46.77;101318.50;5072808;28;40791;-78
2022/03/19 07:19:22;;;;;;;10.67;6.60;;;;;;;16.16;41.85;101337.31;5089572;28;44600;-79
2022/03/19 07:21:49;;;;;;;11.97;7.13;;;;;;;17.96;39.90;101345.28;5110918;28;42397;-78
2022/03/19 07:24:17;;;;;;;11.60;7.07;;;;;;;19.60;35.83;101357.44;5110593;28;39333;-80
2022/03/19 07:26:46;;;;;;;9.43;7.30;;;;;;;21.00;33.41;101361.16;5093208;28;42956;-78
2022/03/19 07:29:15;;;;;;;11.63;6.27;;;;;;;22.21;32.34;101362.72;5093958;28;43039;-80
2022/03/19 07:31:44;;;;;;;11.77;7.50;;;;;;;23.20;29.28;101377.06;5111601;28;43179;-78
2022/03/19 07:34:12;;;;;;;9.77;7.07;;;;;;;24.20;29.45;101363.88;5110704;28;39934;-78
2022/03/19 07:36:39;;;;;;;8.47;6.27;;;;;;;25.26;27.29;101375.09;5111541;28;42679;-82
2022/03/19 07:39:07;;;;;;;8.57;6.77;;;;;;;25.77;25.70;101359.81;5093655;28;41746;-79
2022/03/19 07:41:45;;;;;;;7.73;6.47;;;;;;;26.32;24.92;101365.03;5117628;28;41939;-77
2022/03/19 07:44:13;;;;;;;9.63;7.00;;;;;;;26.70;24.18;101381.50;5097454;28;40723;-77
2022/03/19 07:46:42;;;;;;;8.97;7.10;;;;;;;26.73;25.66;101358.59;5102147;28;42105;-78
2022/03/19 07:49:12;;;;;;;9.63;7.20;;;;;;;26.81;23.98;101366.94;5103446;28;43567;-78
2022/03/19 07:51:41;;;;;;;10.03;7.83;;;;;;;27.31;22.49;101369.59;5102734;27;41428;-78
2022/03/19 07:54:08;;;;;;;10.63;7.93;;;;;;;26.47;22.92;101358.22;5136187;27;41425;-78
2022/03/19 07:56:36;;;;;;;12.53;7.77;;;;;;;25.04;25.11;101332.63;5135007;27;41875;-81
2022/03/19 07:59:04;;;;;;;9.20;7.47;;;;;;;23.42;26.28;101322.22;5135978;27;42680;-79
2022/03/19 08:01:31;;;;;;;13.13;7.70;;;;;;;22.06;28.61;101307.13;5134025;27;41251;-78
2022/03/19 08:03:59;;;;;;;11.33;7.90;;;;;;;21.31;29.13;101298.84;5135741;27;40072;-78
2022/03/19 08:06:28;;;;;;;10.73;8.80;;;;;;;19.71;31.43;101262.66;5124340;27;40593;-79
2022/03/19 08:08:55;;;;;;;12.00;8.07;;;;;;;18.43;33.10;101259.50;5113517;28;43746;-78
2022/03/19 08:11:23;;;;;;;13.63;8.33;;;;;;;17.59;34.84;101253.41;5113223;28;42569;-80
2022/03/19 08:13:51;;;;;;;11.37;7.53;;;;;;;16.75;36.80;101237.28;5113677;28;39696;-81
2022/03/19 08:16:19;;;;;;;12.83;8.00;;;;;;;16.34;38.34;101217.88;5130524;27;40844;-81
2022/03/19 08:18:46;;;;;;;11.53;8.00;;;;;;;16.39;38.02;101218.53;5133881;27;43961;-79
2022/03/19 08:21:14;;;;;;;12.70;8.30;;;;;;;16.53;38.36;101213.38;5135107;27;42562;-82
2022/03/19 08:23:43;;;;;;;13.53;8.37;;;;;;;17.45;37.41;101221.09;5134256;27;39998;-79
2022/03/19 08:26:10;;;;;;;12.57;7.33;;;;;;;19.09;34.81;101232.41;5102734;28;42295;-81
2022/03/19 08:28:38;;;;;;;10.07;7.37;;;;;;;20.56;33.19;101246.44;5114555;28;43205;-78
2022/03/19 08:31:06;;;;;;;10.47;7.17;;;;;;;22.22;29.45;101278.06;5113151;28;42215;-79
2022/03/19 08:33:33;;;;;;;9.67;7.30;;;;;;;23.39;27.86;101273.75;5116187;27;39999;-81
2022/03/19 08:36:01;;;;;;;12.10;7.97;;;;;;;22.90;27.79;101266.69;5116761;27;40822;-81
2022/03/19 08:41:15;;;;;;;11.40;7.13;;;;;;;24.11;27.04;101258.97;5112923;28;43410;-83
2022/03/19 08:43:44;;;;;;;8.60;6.23;;;;;;;25.44;25.00;101285.84;5113195;28;39822;-83
2022/03/19 08:46:11;;;;;;;9.37;6.50;;;;;;;26.81;22.76;101288.91;5115174;27;41022;-83
2022/03/19 08:48:39;;;;;;;8.57;5.80;;;;;;;28.45;22.17;101285.03;5116755;27;41758;-82
2022/03/19 08:53:52;;;;;;;6.90;5.07;;;;;;;31.47;19.21;101290.34;5096129;27;40002;-82
2022/03/19 08:56:21;;;;;;;5.70;5.07;;;;;;;32.50;17.85;101285.84;5112638;27;42451;-83
2022/03/19 08:58:50;;;;;;;7.45;5.00;;;;;;;33.13;16.54;101290.28;5112586;28;42030;-80
2022/03/19 09:01:17;;;;;;;6.05;5.45;;;;;;;33.10;16.96;101283.25;5095027;28;41396;-79
2022/03/19 09:03:46;;;;;;;5.40;3.97;;;;;;;32.96;16.33;101259.31;5106822;27;39631;-81
2022/03/19 09:06:14;;;;;;;5.57;3.80;;;;;;;31.74;17.35;101273.56;5094638;28;42027;-79
2022/03/19 09:08:43;;;;;;;4.17;3.60;;;;;;;28.66;19.14;101249.34;5112265;28;42752;-80
2022/03/19 09:11:11;;;;;;;4.93;4.10;;;;;;;27.96;19.79;101246.25;5096261;28;41231;-82
2022/03/19 09:13:41;;;;;;;4.50;3.70;;;;;;;29.00;19.27;101239.47;5112367;28;40672;-78
2022/03/19 09:16:08;;;;;;;4.67;3.73;;;;;;;29.82;17.43;101254.59;5112481;28;42008;-83
2022/03/19 09:18:36;;;;;;;5.20;3.73;;;;;;;30.37;17.62;101260.53;5112559;28;43095;-81
2022/03/19 09:21:04;;;;;;;4.43;3.53;;;;;;;30.94;17.46;101231.44;5112440;28;42183;-83
2022/03/19 09:23:32;;;;;;;4.13;3.23;;;;;;;30.66;16.77;101254.69;5111707;28;40941;-81
2022/03/19 09:26:06;;;;;;;4.20;3.17;;;;;;;29.92;17.92;101233.50;5114847;27;42160;-83
2022/03/19 09:28:34;;;;;;;4.53;3.00;;;;;;;30.20;18.03;101245.94;5089698;27;41466;-81
2022/03/19 09:31:03;;;;;;;4.87;3.30;;;;;;;29.23;17.39;101237.97;5126305;27;42588;-81
2022/03/19 09:33:30;;;;;;;4.30;2.80;;;;;;;28.45;18.15;101236.81;5090761;28;41826;-82
2022/03/19 09:36:03;;;;;;;4.17;2.97;;;;;;;27.03;18.84;101224.38;5089608;28;42216;-84
2022/03/19 09:38:31;;;;;;;6.80;3.27;;;;;;;25.87;20.42;101229.53;5090483;28;41778;-83
2022/03/19 09:40:59;;;;;;;4.23;2.77;;;;;;;25.09;20.20;101173.13;5080783;28;41360;-83
2022/03/19 09:43:29;;;;;;;3.97;2.73;;;;;;;25.13;20.12;101212.53;5109473;28;38904;-83
2022/03/19 09:45:56;;;;;;;4.33;2.70;;;;;;;24.16;20.63;101199.03;5111135;28;42036;-86
2022/03/19 09:48:25;;;;;;;3.43;2.50;;;;;;;24.67;22.27;101178.47;5092293;28;41840;-80
2022/03/19 09:50:55;;;;;;;2.83;2.27;;;;;;;24.55;20.84;101174.09;5092784;28;42452;-80
2022/03/19 09:53:24;;;;;;;3.57;2.73;;;;;;;24.78;20.96;101176.69;5107762;28;40085;-78
2022/03/19 09:55:53;;;;;;;3.10;2.70;;;;;;;24.80;21.61;101172.88;5126341;27;42722;-79
2022/03/19 09:58:21;;;;;;;4.03;2.77;;;;;;;24.14;21.75;101160.38;5109365;28;44004;-79
2022/03/19 10:00:49;;;;;;;4.57;2.63;;;;;;;23.55;22.26;101166.13;5108334;28;43688;-79
2022/03/19 10:03:22;;;;;;;4.97;2.40;;;;;;;23.09;22.91;101137.28;5109077;28;40350;-83
2022/03/19 10:08:39;;;;;;;4.90;2.60;;;;;;;22.24;23.72;101134.88;5123737;27;42358;-82
2022/03/19 10:11:10;;;;;;;3.03;2.23;;;;;;;23.27;22.93;101140.34;5088417;28;42366;-78
2022/03/19 10:13:40;;;;;;;3.37;1.97;;;;;;;24.23;20.05;101167.81;5109527;28;40329;-79
2022/03/19 10:16:08;;;;;;;2.63;1.90;;;;;;;24.57;19.24;101153.16;5111521;28;41594;-84
2022/03/19 10:18:36;;;;;;;2.20;1.77;;;;;;;24.46;19.05;101169.44;5109527;28;42714;-85
2022/03/19 10:21:16;;;;;;;2.17;1.87;;;;;;;24.33;18.39;101155.22;5107101;28;42311;-84
2022/03/19 10:23:44;;;;;;;2.27;1.70;;;;;;;25.21;18.45;101166.63;5086487;28;40244;-86
2022/03/19 10:26:23;;;;;;;2.07;1.67;;;;;;;27.12;17.07;101155.50;5108501;28;40823;-83
2022/03/19 10:28:57;;;;;;;2.27;2.03;;;;;;;28.20;15.88;101161.25;5093062;28;41755;-80
2022/03/19 10:31:33;;;;;;;1.77;1.67;;;;;;;28.88;15.98;101156.16;5110572;28;41344;-81
2022/03/19 10:34:01;;;;;;;3.97;1.90;;;;;;;29.48;15.11;101165.31;5108932;28;39102;-82
2022/03/19 10:36:33;;;;;;;2.70;1.93;;;;;;;28.70;14.63;101158.84;5109681;28;42850;-84
2022/03/19 10:39:07;;;;;;;2.43;1.83;;;;;;;26.96;16.11;101114.44;5107418;28;42972;-85
2022/03/19 10:41:39;;;;;;;2.30;1.90;;;;;;;27.64;17.05;101126.84;5108162;28;44235;-86
2022/03/19 10:44:12;;;;;;;1.90;1.60;;;;;;;27.87;15.74;101132.75;5089521;28;41510;-80
2022/03/19 10:46:43;;;;;;;2.63;1.97;;;;;;;27.93;14.22;101144.91;5087815;28;41130;-80
2022/03/19 10:49:15;;;;;;;1.60;1.50;;;;;;;28.80;13.27;101140.59;5135274;27;43637;-78
2022/03/19 10:51:46;;;;;;;2.23;1.40;;;;;;;30.02;12.78;101156.88;5109301;27;43434;-79
2022/03/19 10:54:14;;;;;;;1.93;1.50;;;;;;;30.88;12.77;101149.16;5092828;28;40348;-81
2022/03/19 10:56:42;;;;;;;2.40;1.50;;;;;;;31.59;11.63;101154.72;5109455;28;41618;-82
2022/03/19 10:59:11;;;;;;;2.97;1.97;;;;;;;32.40;11.33;101176.28;5111014;27;43337;-79
2022/03/19 11:01:39;;;;;;;1.73;1.42;;;;;;;32.35;11.54;101165.03;5109313;28;41050;-80
2022/03/19 11:04:09;;;;;;;3.28;1.92;;;;;;;32.94;10.84;101162.53;5126296;27;39997;-80
2022/03/19 11:06:37;;;;;;;2.10;1.50;;;;;;;33.61;10.97;101157.09;5092077;28;43562;-81
2022/03/19 11:09:10;;;;;;;1.92;1.65;;;;;;;33.83;10.62;101164.38;5109221;28;43759;-81
2022/03/19 11:11:46;;;;;;;3.47;2.15;;;;;;;33.76;10.45;101146.94;5108223;28;42192;-81
2022/03/19 11:14:22;;;;;;;1.90;1.80;;;;;;;34.25;11.19;101141.63;5093111;28;39750;-81
2022/03/19 11:19:46;;;;;;;2.65;1.90;;;;;;;33.53;11.02;101152.50;5131936;27;42721;-81
2022/03/19 11:22:14;;;;;;;2.22;1.75;;;;;;;33.11;11.17;101144.88;5114359;28;41271;-81
2022/03/19 11:24:49;;;;;;;2.17;1.88;;;;;;;33.09;10.77;101129.63;5108158;28;41095;-81
2022/03/19 11:27:19;;;;;;;2.35;2.08;;;;;;;33.32;9.48;101137.81;5108300;28;41668;-81
2022/03/19 11:29:47;;;;;;;1.50;1.40;;;;;;;34.33;9.67;101142.59;5113143;27;44324;-82
2022/03/19 11:32:22;;;;;;;2.63;1.73;;;;;;;34.02;9.16;101145.56;5095554;28;42479;-83
2022/03/19 11:34:56;;;;;;;1.70;1.60;;;;;;;34.84;9.21;101135.09;5108037;28;40135;-81
2022/03/19 11:37:25;;;;;;;1.55;1.42;;;;;;;35.45;8.94;101132.59;5117981;27;42169;-83
2022/03/19 11:40:05;;;;;;;2.72;1.70;;;;;;;34.81;9.08;101138.22;5116315;27;43752;-82
2022/03/19 11:42:34;;;;;;;2.83;1.73;;;;;;;35.24;9.60;101126.06;5117259;27;43741;-82
2022/03/19 11:45:10;;;;;;;1.77;1.67;;;;;;;34.52;9.90;101109.75;5099034;27;39489;-83
2022/03/19 11:47:38;;;;;;;2.20;1.83;;;;;;;32.64;11.11;101095.69;5127477;27;41765;-82
2022/03/19 11:50:19;;;;;;;2.37;2.17;;;;;;;31.87;12.16;101085.78;5110566;28;43144;-82
2022/03/19 11:53:05;;;;;;;2.07;1.93;;;;;;;31.41;12.23;101082.84;5107813;27;42572;-82